Time;durP1;ratioP1;P1;durP2;ratioP2;P2;SDS_P1;SDS_P2;PMS_P1;PMS_P2;Temp;Humidity;BMP_temperature;BMP_pressure;BME280_temperature;BME280_humidity;BME280_pressure;Samples;Min_cycle;Max_cycle;Signal;HPM_P1;HPM_P2
2023/10/13 00:00:58;;;;;;;0.10;0.10;;;;;;;;;;5017388;28;20069;-92
2023/10/13 00:03:25;;;;;;;0.30;0.30;;;;;;;;;;5016558;28;20037;-95
2023/10/13 00:05:52;;;;;;;0.10;0.10;;;;;;;;;;5016547;28;20513;-93
2023/10/13 00:08:20;;;;;;;0.10;0.10;;;;;;;;;;5016070;28;20064;-92
2023/10/13 00:10:47;;;;;;;0.20;0.20;;;;;;;;;;5016870;28;20045;-93
2023/10/13 00:13:15;;;;;;;0.30;0.30;;;;;;;;;;5016752;28;20045;-93
2023/10/13 00:16:09;;;;;;;0.10;0.10;;;;;;;;;;5016607;28;20128;-92
2023/10/13 00:18:41;;;;;;;0.20;0.20;;;;;;;;;;5032479;28;20045;-93
2023/10/13 00:21:14;;;;;;;0.00;0.00;;;;;;;;;;5017673;28;20051;-94
2023/10/13 00:23:53;;;;;;;0.20;0.20;;;;;;;;;;5017318;28;20087;-93
2023/10/13 00:26:24;;;;;;;0.10;0.10;;;;;;;;;;5017222;28;20060;-94
2023/10/13 00:28:58;;;;;;;0.10;0.10;;;;;;;;;;5016048;28;20076;-92
2023/10/13 00:31:26;;;;;;;0.10;0.10;;;;;;;;;;5015814;28;20038;-92
2023/10/13 00:33:55;;;;;;;0.17;0.17;;;;;;;;;;5014977;28;20041;-92
2023/10/13 00:36:23;;;;;;;0.10;0.10;;;;;;;;;;5014991;28;20044;-93
2023/10/13 00:38:49;;;;;;;0.20;0.20;;;;;;;;;;5014378;28;20037;-93
2023/10/13 00:41:17;;;;;;;0.10;0.10;;;;;;;;;;5015461;28;20083;-92
2023/10/13 00:44:04;;;;;;;0.10;0.10;;;;;;;;;;5015610;28;20045;-93
2023/10/13 00:46:33;;;;;;;0.20;0.20;;;;;;;;;;5015775;28;20038;-91
2023/10/13 00:48:59;;;;;;;0.20;0.20;;;;;;;;;;5015480;28;20048;-92
2023/10/13 00:51:47;;;;;;;0.10;0.10;;;;;;;;;;5031028;28;20037;-92
2023/10/13 00:54:13;;;;;;;0.10;0.10;;;;;;;;;;5015450;28;20041;-93
2023/10/13 00:56:48;;;;;;;0.20;0.20;;;;;;;;;;5015196;28;20038;-93
2023/10/13 00:59:15;;;;;;;0.30;0.30;;;;;;;;;;5015188;28;20045;-93
2023/10/13 01:01:44;;;;;;;0.20;0.20;;;;;;;;;;5014944;28;20037;-92
2023/10/13 01:04:12;;;;;;;0.20;0.20;;;;;;;;;;5015867;28;20052;-93
2023/10/13 01:06:39;;;;;;;0.17;0.17;;;;;;;;;;5015509;28;20042;-94
2023/10/13 01:09:16;;;;;;;0.10;0.10;;;;;;;;;;5032168;28;20091;-93
2023/10/13 01:11:52;;;;;;;0.20;0.20;;;;;;;;;;5014811;28;20052;-92
2023/10/13 01:14:20;;;;;;;0.10;0.10;;;;;;;;;;5031472;28;20131;-93
2023/10/13 01:16:46;;;;;;;0.10;0.10;;;;;;;;;;5014526;28;20072;-93
2023/10/13 01:19:19;;;;;;;0.10;0.10;;;;;;;;;;5014721;28;20584;-92
2023/10/13 01:21:47;;;;;;;0.10;0.10;;;;;;;;;;5014454;28;20038;-93
2023/10/13 01:24:13;;;;;;;0.20;0.20;;;;;;;;;;5015230;28;20056;-92
2023/10/13 01:26:41;;;;;;;0.10;0.10;;;;;;;;;;5015620;28;20568;-92
2023/10/13 01:29:13;;;;;;;0.20;0.20;;;;;;;;;;4998846;28;20045;-92
2023/10/13 01:31:45;;;;;;;0.10;0.10;;;;;;;;;;5015240;28;20472;-92
2023/10/13 01:34:12;;;;;;;0.00;0.00;;;;;;;;;;5014697;28;20065;-94
2023/10/13 01:36:40;;;;;;;0.15;0.15;;;;;;;;;;5015492;28;20128;-93
2023/10/13 01:39:06;;;;;;;0.08;0.08;;;;;;;;;;5014978;28;20034;-94
2023/10/13 01:41:32;;;;;;;0.10;0.10;;;;;;;;;;5014656;28;20076;-94
2023/10/13 01:43:58;;;;;;;0.30;0.30;;;;;;;;;;5031978;28;20041;-94
2023/10/13 01:46:24;;;;;;;0.20;0.20;;;;;;;;;;5014738;28;20042;-94
2023/10/13 01:48:54;;;;;;;0.10;0.10;;;;;;;;;;5015622;28;20091;-94
2023/10/13 01:51:23;;;;;;;0.13;0.13;;;;;;;;;;5014482;28;20172;-94
2023/10/13 01:53:56;;;;;;;0.20;0.20;;;;;;;;;;5015480;28;20133;-94
2023/10/13 01:56:29;;;;;;;0.00;0.00;;;;;;;;;;5015907;28;20042;-95
2023/10/13 01:58:55;;;;;;;0.17;0.17;;;;;;;;;;5015491;28;20040;-93
2023/10/13 02:01:27;;;;;;;0.10;0.10;;;;;;;;;;5014892;28;20037;-93
2023/10/13 02:04:02;;;;;;;0.10;0.10;;;;;;;;;;5015104;28;20052;-93
2023/10/13 02:06:32;;;;;;;0.20;0.20;;;;;;;;;;5015436;28;20048;-93
2023/10/13 02:09:10;;;;;;;0.10;0.10;;;;;;;;;;5014628;28;20037;-94
2023/10/13 02:11:40;;;;;;;0.10;0.10;;;;;;;;;;5014076;28;20095;-93
2023/10/13 02:14:06;;;;;;;0.10;0.10;;;;;;;;;;5031173;28;20048;-93
2023/10/13 02:16:32;;;;;;;0.10;0.10;;;;;;;;;;5014664;28;20037;-94
2023/10/13 02:19:03;;;;;;;0.10;0.10;;;;;;;;;;5014263;28;20048;-93
2023/10/13 02:21:31;;;;;;;0.13;0.13;;;;;;;;;;5014767;28;20080;-93
2023/10/13 02:24:02;;;;;;;0.03;0.03;;;;;;;;;;5014730;28;20041;-93
2023/10/13 02:26:30;;;;;;;0.10;0.10;;;;;;;;;;5015315;28;20041;-93
2023/10/13 02:29:04;;;;;;;0.10;0.10;;;;;;;;;;5014641;28;20041;-94
2023/10/13 02:31:30;;;;;;;0.10;0.10;;;;;;;;;;5013925;28;20037;-94
2023/10/13 02:33:56;;;;;;;0.20;0.20;;;;;;;;;;5014313;28;20038;-94
2023/10/13 02:36:35;;;;;;;0.10;0.10;;;;;;;;;;5013679;28;20037;-93
2023/10/13 02:39:07;;;;;;;0.20;0.20;;;;;;;;;;5013527;28;20068;-93
2023/10/13 02:41:33;;;;;;;0.10;0.10;;;;;;;;;;5014293;28;20105;-94
2023/10/13 02:43:59;;;;;;;0.20;0.20;;;;;;;;;;5014335;28;20056;-94
2023/10/13 02:46:29;;;;;;;0.10;0.10;;;;;;;;;;5015135;28;20037;-93
2023/10/13 02:48:57;;;;;;;0.30;0.30;;;;;;;;;;5014600;28;20037;-93
2023/10/13 02:51:59;;;;;;;0.20;0.20;;;;;;;;;;5014568;28;20042;-92
2023/10/13 02:54:19;;;;;;;0.20;0.20;;;;;;;;;;5026764;28;20030;-92
2023/10/13 02:57:05;;;;;;;0.10;0.10;;;;;;;;;;5013962;28;20043;-93
2023/10/13 02:59:34;;;;;;;0.20;0.20;;;;;;;;;;5013345;28;20048;-93
2023/10/13 03:04:48;;;;;;;0.20;0.20;;;;;;;;;;5033859;28;20085;-93
2023/10/13 03:07:15;;;;;;;0.10;0.10;;;;;;;;;;5018244;28;20081;-93
2023/10/13 03:09:50;;;;;;;0.15;0.15;;;;;;;;;;5018682;28;20037;-93
2023/10/13 03:12:16;;;;;;;0.10;0.10;;;;;;;;;;5018060;28;20069;-94
2023/10/13 03:14:42;;;;;;;0.10;0.10;;;;;;;;;;5017645;28;20109;-93
2023/10/13 03:17:16;;;;;;;0.30;0.30;;;;;;;;;;5017193;28;20065;-93
2023/10/13 03:19:49;;;;;;;0.10;0.10;;;;;;;;;;5016612;28;20053;-93
2023/10/13 03:22:16;;;;;;;0.10;0.10;;;;;;;;;;5016762;28;20080;-93
2023/10/13 03:24:46;;;;;;;0.05;0.05;;;;;;;;;;5016662;28;20037;-93
2023/10/13 03:27:16;;;;;;;0.10;0.10;;;;;;;;;;5017520;28;20033;-92
2023/10/13 03:29:43;;;;;;;0.10;0.10;;;;;;;;;;5017530;28;20041;-92
2023/10/13 03:32:13;;;;;;;0.20;0.20;;;;;;;;;;5016834;28;20091;-93
2023/10/13 03:34:52;;;;;;;0.10;0.10;;;;;;;;;;5017065;28;20041;-92
2023/10/13 03:37:19;;;;;;;0.10;0.10;;;;;;;;;;5016569;28;20069;-92
2023/10/13 03:39:46;;;;;;;0.17;0.17;;;;;;;;;;5017299;28;20045;-93
2023/10/13 03:42:18;;;;;;;0.30;0.30;;;;;;;;;;5016280;28;20037;-92
2023/10/13 03:44:48;;;;;;;0.05;0.05;;;;;;;;;;5015810;28;20099;-92
2023/10/13 03:47:26;;;;;;;0.22;0.22;;;;;;;;;;5016056;28;20049;-92
2023/10/13 03:52:40;;;;;;;0.10;0.10;;;;;;;;;;5032519;28;20049;-94
2023/10/13 03:55:07;;;;;;;0.10;0.10;;;;;;;;;;5016336;28;20045;-93
2023/10/13 03:57:34;;;;;;;0.03;0.03;;;;;;;;;;5016032;28;20069;-92
2023/10/13 04:00:08;;;;;;;0.17;0.17;;;;;;;;;;5016006;28;20045;-92
2023/10/13 04:02:36;;;;;;;0.10;0.10;;;;;;;;;;5013544;28;20061;-93
2023/10/13 04:05:08;;;;;;;0.10;0.10;;;;;;;;;;4996636;28;20045;-93
2023/10/13 04:08:03;;;;;;;0.10;0.10;;;;;;;;;;4995865;28;20042;-93
2023/10/13 04:30:24;;;;;;;;;;;;;;;;;;5013954;28;20050;-92
2023/10/13 04:32:27;;;;;;;;;;;;;;;;;;4999484;28;19917;-94
2023/10/13 04:34:57;;;;;;;0.10;0.10;;;;;;;;;;4997133;28;19929;-92
2023/10/13 04:37:29;;;;;;;0.10;0.10;;;;;;;;;;4996712;28;20049;-93
2023/10/13 04:39:59;;;;;;;0.20;0.20;;;;;;;;;;4996729;28;20053;-93
2023/10/13 04:48:17;;;;;;;0.17;0.17;;;;;;;;;;4991042;28;20050;-96
2023/10/13 04:50:45;;;;;;;0.10;0.10;;;;;;;;;;4997510;28;20129;-94
2023/10/13 04:54:00;;;;;;;0.17;0.17;;;;;;;;;;4997920;28;20025;-95
2023/10/13 05:04:38;;;;;;;0.20;0.20;;;;;;;;;;5014736;28;20088;-93
2023/10/13 05:51:43;;;;;;;0.10;0.10;;;;;;;;;;5009957;28;20478;-93
2023/10/13 06:29:37;;;;;;;;;;;;;;;;;;5012548;28;20558;-93
2023/10/13 06:32:10;;;;;;;0.10;0.10;;;;;;;;;;4995646;28;19980;-93
2023/10/13 06:34:46;;;;;;;0.22;0.22;;;;;;;;;;4995773;28;20069;-92
2023/10/13 06:37:31;;;;;;;0.20;0.20;;;;;;;;;;4997626;28;20065;-94
2023/10/13 06:39:59;;;;;;;0.10;0.10;;;;;;;;;;5016392;28;20101;-94
2023/10/13 06:42:28;;;;;;;0.15;0.15;;;;;;;;;;5000238;28;20061;-94
2023/10/13 06:44:55;;;;;;;0.25;0.25;;;;;;;;;;5000817;28;20038;-94
2023/10/13 06:47:21;;;;;;;0.20;0.20;;;;;;;;;;4983739;28;20060;-93
2023/10/13 06:49:51;;;;;;;0.05;0.05;;;;;;;;;;5032594;28;20136;-92
2023/10/13 06:52:17;;;;;;;0.20;0.20;;;;;;;;;;4999490;28;20038;-93
2023/10/13 06:54:43;;;;;;;0.10;0.10;;;;;;;;;;4999723;28;20048;-93
2023/10/13 06:57:20;;;;;;;0.10;0.10;;;;;;;;;;4999921;28;20478;-94
2023/10/13 06:59:48;;;;;;;0.13;0.13;;;;;;;;;;5000064;28;20052;-92
2023/10/13 07:02:23;;;;;;;0.10;0.10;;;;;;;;;;5000624;28;20056;-94
2023/10/13 07:04:56;;;;;;;0.20;0.20;;;;;;;;;;5000064;28;20045;-93
2023/10/13 07:07:23;;;;;;;0.10;0.10;;;;;;;;;;5002428;28;20042;-92
2023/10/13 07:09:55;;;;;;;0.10;0.10;;;;;;;;;;5020567;28;20048;-92
2023/10/13 07:12:33;;;;;;;0.10;0.10;;;;;;;;;;5018355;28;20105;-93
2023/10/13 07:15:19;;;;;;;0.10;0.10;;;;;;;;;;5016367;28;20038;-92
2023/10/13 07:17:47;;;;;;;0.00;0.00;;;;;;;;;;4999547;28;20061;-92
2023/10/13 07:20:57;;;;;;;0.10;0.10;;;;;;;;;;5014566;28;20128;-92
2023/10/13 07:23:06;;;;;;;0.05;0.05;;;;;;;;;;5028299;28;20053;-93
2023/10/13 07:25:32;;;;;;;0.20;0.20;;;;;;;;;;5019739;28;20112;-92
2023/10/13 07:28:08;;;;;;;0.10;0.10;;;;;;;;;;5019536;28;20055;-92
2023/10/13 07:33:30;;;;;;;0.20;0.20;;;;;;;;;;5013612;28;20053;-92
2023/10/13 07:36:01;;;;;;;0.05;0.05;;;;;;;;;;5019555;28;20037;-92
2023/10/13 07:38:30;;;;;;;0.10;0.10;;;;;;;;;;5019533;28;20060;-94
2023/10/13 07:41:07;;;;;;;0.20;0.20;;;;;;;;;;5003878;28;20038;-93
2023/10/13 07:43:33;;;;;;;0.17;0.17;;;;;;;;;;5001755;28;20044;-93
2023/10/13 07:45:59;;;;;;;0.10;0.10;;;;;;;;;;5002144;28;20053;-93
2023/10/13 07:48:25;;;;;;;0.20;0.20;;;;;;;;;;5016784;28;20105;-93
2023/10/13 07:51:08;;;;;;;0.10;0.10;;;;;;;;;;5017111;28;20075;-92
2023/10/13 07:53:34;;;;;;;0.10;0.10;;;;;;;;;;5004520;28;20034;-93
2023/10/13 07:56:14;;;;;;;0.10;0.10;;;;;;;;;;5007912;28;20042;-92
2023/10/13 07:58:52;;;;;;;0.10;0.10;;;;;;;;;;5001620;28;20045;-92
2023/10/13 08:01:22;;;;;;;0.10;0.10;;;;;;;;;;5012980;28;20033;-91
2023/10/13 08:04:04;;;;;;;0.10;0.10;;;;;;;;;;5004565;28;20109;-93
2023/10/13 08:06:30;;;;;;;0.10;0.10;;;;;;;;;;5017016;28;20048;-93
2023/10/13 08:09:09;;;;;;;0.15;0.15;;;;;;;;;;5007143;28;20045;-94
2023/10/13 08:11:37;;;;;;;0.10;0.10;;;;;;;;;;5013954;28;20549;-92
2023/10/13 08:16:47;;;;;;;0.20;0.20;;;;;;;;;;5024319;28;20134;-93
2023/10/13 08:19:17;;;;;;;0.20;0.20;;;;;;;;;;5016264;28;20041;-92
2023/10/13 08:21:54;;;;;;;0.10;0.10;;;;;;;;;;5018282;28;20073;-92
2023/10/13 08:35:09;;;;;;;0.20;0.20;;;;;;;;;;5025390;28;20043;-94
2023/10/13 08:37:56;;;;;;;0.10;0.10;;;;;;;;;;5008656;28;20029;-93
2023/10/13 08:40:43;;;;;;;0.10;0.10;;;;;;;;;;5025460;28;20505;-93
2023/10/13 08:43:12;;;;;;;0.10;0.10;;;;;;;;;;5007233;28;20041;-93
2023/10/13 08:48:13;;;;;;;0.25;0.25;;;;;;;;;;5015487;28;20124;-92
2023/10/13 08:50:52;;;;;;;0.10;0.10;;;;;;;;;;5009789;28;20038;-90
2023/10/13 08:53:31;;;;;;;0.17;0.17;;;;;;;;;;5006159;28;20049;-92
2023/10/13 08:56:15;;;;;;;0.00;0.00;;;;;;;;;;5015435;28;20045;-92
2023/10/13 09:01:34;;;;;;;0.10;0.10;;;;;;;;;;5020964;28;20180;-92
2023/10/13 09:04:59;;;;;;;0.20;0.20;;;;;;;;;;5015912;28;20037;-91
2023/10/13 09:12:26;;;;;;;0.10;0.10;;;;;;;;;;5021337;28;20077;-93
2023/10/13 09:15:17;;;;;;;0.20;0.20;;;;;;;;;;5007748;28;20138;-92
2023/10/13 09:23:12;;;;;;;0.20;0.20;;;;;;;;;;5034240;28;20041;-92
2023/10/13 09:25:53;;;;;;;0.10;0.10;;;;;;;;;;5017863;28;20065;-91
2023/10/13 09:28:21;;;;;;;0.10;0.10;;;;;;;;;;5017295;28;20037;-90
2023/10/13 09:30:52;;;;;;;0.10;0.10;;;;;;;;;;5013907;28;20101;-92
2023/10/13 09:33:32;;;;;;;0.10;0.10;;;;;;;;;;5014064;28;20038;-90
2023/10/13 09:35:59;;;;;;;0.10;0.10;;;;;;;;;;5006962;28;20038;-92
2023/10/13 09:38:47;;;;;;;0.08;0.08;;;;;;;;;;5008718;28;20495;-91
2023/10/13 09:41:25;;;;;;;0.20;0.20;;;;;;;;;;5001627;28;20041;-90
2023/10/13 09:43:52;;;;;;;0.05;0.05;;;;;;;;;;5012250;28;20041;-91
2023/10/13 09:46:26;;;;;;;0.20;0.20;;;;;;;;;;5005196;28;20124;-90
2023/10/13 09:49:14;;;;;;;0.15;0.15;;;;;;;;;;5005885;28;20042;-89
2023/10/13 09:51:44;;;;;;;0.13;0.13;;;;;;;;;;5001165;28;20034;-89
2023/10/13 09:54:20;;;;;;;0.10;0.10;;;;;;;;;;5013195;28;20069;-90
2023/10/13 09:56:52;;;;;;;0.10;0.10;;;;;;;;;;5011819;28;20076;-90
2023/10/13 09:59:35;;;;;;;0.22;0.22;;;;;;;;;;5016321;28;20037;-90
2023/10/13 10:02:08;;;;;;;0.10;0.10;;;;;;;;;;4996777;28;20049;-90
2023/10/13 10:04:51;;;;;;;0.10;0.10;;;;;;;;;;5005839;28;20044;-89
2023/10/13 10:07:29;;;;;;;0.10;0.10;;;;;;;;;;4996011;28;20081;-88
2023/10/13 10:09:59;;;;;;;0.10;0.10;;;;;;;;;;5004740;28;20046;-90
2023/10/13 10:12:46;;;;;;;0.10;0.10;;;;;;;;;;5000045;28;20038;-89
2023/10/13 10:15:30;;;;;;;0.10;0.10;;;;;;;;;;5031347;28;20034;-90
2023/10/13 10:17:56;;;;;;;0.10;0.10;;;;;;;;;;5030047;28;20077;-89
2023/10/13 10:20:42;;;;;;;0.10;0.10;;;;;;;;;;5019319;28;20033;-91
2023/10/13 10:23:21;;;;;;;0.10;0.10;;;;;;;;;;5007248;28;20034;-90
2023/10/13 10:25:51;;;;;;;0.10;0.10;;;;;;;;;;5019781;28;20042;-90
2023/10/13 10:28:19;;;;;;;0.00;0.00;;;;;;;;;;5008888;28;20038;-90
2023/10/13 10:30:46;;;;;;;0.10;0.10;;;;;;;;;;5031193;28;20041;-90
2023/10/13 10:33:13;;;;;;;0.20;0.20;;;;;;;;;;5005047;28;20041;-89
2023/10/13 10:35:43;;;;;;;0.10;0.10;;;;;;;;;;5020256;28;20037;-91
2023/10/13 10:38:23;;;;;;;0.10;0.10;;;;;;;;;;5005687;28;20106;-90
2023/10/13 10:41:00;;;;;;;0.17;0.17;;;;;;;;;;5012564;28;20046;-90
2023/10/13 10:43:42;;;;;;;0.10;0.10;;;;;;;;;;5011597;28;20128;-92
2023/10/13 10:46:10;;;;;;;0.10;0.10;;;;;;;;;;5015720;28;20044;-90
2023/10/13 10:48:42;;;;;;;0.13;0.13;;;;;;;;;;5015680;28;20041;-91
2023/10/13 10:51:14;;;;;;;0.20;0.20;;;;;;;;;;5006329;28;20034;-91
2023/10/13 10:53:46;;;;;;;0.20;0.20;;;;;;;;;;5024295;28;20053;-90
2023/10/13 10:56:36;;;;;;;0.10;0.10;;;;;;;;;;5012096;28;20043;-91
2023/10/13 10:59:08;;;;;;;0.20;0.20;;;;;;;;;;5001490;28;20042;-92
2023/10/13 11:01:38;;;;;;;0.10;0.10;;;;;;;;;;5014961;28;20049;-89
2023/10/13 11:04:08;;;;;;;0.10;0.10;;;;;;;;;;5014946;28;20050;-90
2023/10/13 11:06:42;;;;;;;0.13;0.13;;;;;;;;;;5029322;28;20092;-89
2023/10/13 11:11:57;;;;;;;0.13;0.13;;;;;;;;;;5029161;28;20037;-90
2023/10/13 11:14:27;;;;;;;0.10;0.10;;;;;;;;;;5020367;28;20044;-89
2023/10/13 11:16:54;;;;;;;0.10;0.10;;;;;;;;;;5001434;28;20045;-91
2023/10/13 11:19:25;;;;;;;0.10;0.10;;;;;;;;;;4997011;28;20034;-90
2023/10/13 11:21:52;;;;;;;0.13;0.13;;;;;;;;;;5005843;28;20042;-91
2023/10/13 11:24:18;;;;;;;0.20;0.20;;;;;;;;;;5018725;28;20059;-90
2023/10/13 11:26:52;;;;;;;0.00;0.00;;;;;;;;;;5019774;28;20067;-91
2023/10/13 11:29:22;;;;;;;0.10;0.10;;;;;;;;;;5014447;28;20395;-90
2023/10/13 11:31:57;;;;;;;0.10;0.10;;;;;;;;;;5011648;28;20047;-91
2023/10/13 11:34:24;;;;;;;0.10;0.10;;;;;;;;;;5019314;28;20091;-90
2023/10/13 12:34:06;;;;;;;0.20;0.20;;;;;;;;;;5040748;28;20058;-90
2023/10/13 12:36:40;;;;;;;0.15;0.15;;;;;;;;;;4999035;28;20073;-93
2023/10/13 12:49:57;;;;;;;0.30;0.30;;;;;;;;;;5024675;28;20647;-92
2023/10/13 12:52:26;;;;;;;0.20;0.20;;;;;;;;;;5010087;28;20049;-93
2023/10/13 12:54:58;;;;;;;0.28;0.28;;;;;;;;;;5018410;28;20053;-91
2023/10/13 12:57:24;;;;;;;0.10;0.10;;;;;;;;;;5017745;28;20037;-92
2023/10/13 12:59:54;;;;;;;0.20;0.20;;;;;;;;;;5011458;28;20044;-90
2023/10/13 13:02:26;;;;;;;0.10;0.10;;;;;;;;;;5019992;28;20063;-90
2023/10/13 13:07:29;;;;;;;0.10;0.10;;;;;;;;;;5091035;23;20083;-91
2023/10/13 13:09:58;;;;;;;0.10;0.10;;;;;;;;;;5038530;28;20080;-91
2023/10/13 13:12:24;;;;;;;0.10;0.10;;;;;;;;;;5036615;28;20037;-91
2023/10/13 13:14:54;;;;;;;0.20;0.20;;;;;;;;;;5033897;28;20037;-91
2023/10/13 13:17:21;;;;;;;0.10;0.10;;;;;;;;;;5030452;28;20033;-91
2023/10/13 13:19:47;;;;;;;0.10;0.10;;;;;;;;;;5029407;28;20091;-91
2023/10/13 13:22:13;;;;;;;0.10;0.10;;;;;;;;;;5027446;28;20033;-92
2023/10/13 13:24:49;;;;;;;0.20;0.20;;;;;;;;;;5030132;28;20037;-90
2023/10/13 13:27:19;;;;;;;0.20;0.20;;;;;;;;;;5033223;28;20046;-91
2023/10/13 13:29:47;;;;;;;0.10;0.10;;;;;;;;;;5021084;28;20047;-90
2023/10/13 13:32:23;;;;;;;0.10;0.10;;;;;;;;;;5044375;28;20141;-90
2023/10/13 13:35:04;;;;;;;0.10;0.10;;;;;;;;;;5034044;28;20038;-90
2023/10/13 13:37:44;;;;;;;0.10;0.10;;;;;;;;;;5044497;28;20038;-91
2023/10/13 13:40:18;;;;;;;0.13;0.13;;;;;;;;;;5037502;28;20525;-93
2023/10/13 13:42:44;;;;;;;0.10;0.10;;;;;;;;;;5033213;28;20095;-89
2023/10/13 13:45:41;;;;;;;0.10;0.10;;;;;;;;;;5039738;28;20041;-91
2023/10/13 13:48:15;;;;;;;0.15;0.15;;;;;;;;;;5021081;28;20041;-89
2023/10/13 13:50:41;;;;;;;0.10;0.10;;;;;;;;;;5033252;28;20037;-90
2023/10/13 13:53:11;;;;;;;0.10;0.10;;;;;;;;;;5031448;28;20093;-90
2023/10/13 13:55:39;;;;;;;0.25;0.25;;;;;;;;;;5026241;28;20083;-91
2023/10/13 13:58:14;;;;;;;0.17;0.17;;;;;;;;;;5037145;28;20065;-92
2023/10/13 14:00:48;;;;;;;0.20;0.20;;;;;;;;;;5036850;28;20052;-91
2023/10/13 14:04:17;;;;;;;0.17;0.17;;;;;;;;;;5036703;28;20160;-90
2023/10/13 14:06:29;;;;;;;0.17;0.17;;;;;;;;;;5023580;28;20045;-90
2023/10/13 14:08:56;;;;;;;0.20;0.20;;;;;;;;;;5027338;28;20064;-91
2023/10/13 14:17:07;;;;;;;0.20;0.20;;;;;;;;;;5034677;28;20068;-90
2023/10/13 14:19:34;;;;;;;0.13;0.13;;;;;;;;;;5030527;28;20028;-91
2023/10/13 14:22:06;;;;;;;0.03;0.03;;;;;;;;;;5036344;28;20086;-92
2023/10/13 14:24:43;;;;;;;0.15;0.15;;;;;;;;;;5024315;28;20037;-91
2023/10/13 14:27:17;;;;;;;0.10;0.10;;;;;;;;;;5033990;28;20068;-91
2023/10/13 14:29:44;;;;;;;0.10;0.10;;;;;;;;;;5021456;28;20076;-90
2023/10/13 14:32:14;;;;;;;0.10;0.10;;;;;;;;;;5032378;28;20041;-91
2023/10/13 14:34:53;;;;;;;0.10;0.10;;;;;;;;;;5029200;28;20122;-90
2023/10/13 14:37:26;;;;;;;0.17;0.17;;;;;;;;;;5034703;28;20045;-91
2023/10/13 14:40:00;;;;;;;0.20;0.20;;;;;;;;;;5019282;28;20037;-89
2023/10/13 14:42:35;;;;;;;0.10;0.10;;;;;;;;;;5034249;28;20039;-92
2023/10/13 14:45:12;;;;;;;;;;;;;;;;;;5034248;28;20068;-92
2023/10/13 14:47:39;;;;;;;0.20;0.20;;;;;;;;;;5038483;28;19924;-92
2023/10/13 14:50:06;;;;;;;0.20;0.20;;;;;;;;;;5028681;28;20042;-93
2023/10/13 14:52:35;;;;;;;0.20;0.20;;;;;;;;;;5034437;28;20116;-90
2023/10/13 14:55:21;;;;;;;0.20;0.20;;;;;;;;;;5036487;28;20037;-91
2023/10/13 14:57:53;;;;;;;0.10;0.10;;;;;;;;;;5025298;28;20052;-91
2023/10/13 15:00:27;;;;;;;0.10;0.10;;;;;;;;;;5039786;28;20029;-92
2023/10/13 15:02:54;;;;;;;0.10;0.10;;;;;;;;;;5027863;28;20056;-93
2023/10/13 15:05:20;;;;;;;0.10;0.10;;;;;;;;;;5040910;28;20064;-93
2023/10/13 15:07:46;;;;;;;0.20;0.20;;;;;;;;;;5036260;28;20040;-92
2023/10/13 15:10:15;;;;;;;0.10;0.10;;;;;;;;;;5040843;28;20037;-92
2023/10/13 15:12:48;;;;;;;0.00;0.00;;;;;;;;;;5037021;28;20045;-92
2023/10/13 15:15:16;;;;;;;0.20;0.20;;;;;;;;;;5038455;28;20109;-91
2023/10/13 15:17:42;;;;;;;0.00;0.00;;;;;;;;;;5035485;28;20075;-91
2023/10/13 15:20:18;;;;;;;0.13;0.13;;;;;;;;;;5040283;28;20096;-90
2023/10/13 15:22:44;;;;;;;0.10;0.10;;;;;;;;;;5039279;28;20041;-90
2023/10/13 15:28:09;;;;;;;0.20;0.20;;;;;;;;;;5048826;28;20126;-92
2023/10/13 15:30:45;;;;;;;0.10;0.10;;;;;;;;;;5040288;28;20064;-94
2023/10/13 15:33:12;;;;;;;0.13;0.13;;;;;;;;;;5032060;28;20056;-93
2023/10/13 15:35:45;;;;;;;0.10;0.10;;;;;;;;;;5020227;28;20048;-91
2023/10/13 15:38:14;;;;;;;0.10;0.10;;;;;;;;;;5030965;28;20036;-92
2023/10/13 15:43:31;;;;;;;0.10;0.10;;;;;;;;;;5053997;28;20060;-90
2023/10/13 15:46:00;;;;;;;0.10;0.10;;;;;;;;;;5037054;28;20052;-93
2023/10/13 15:48:26;;;;;;;0.10;0.10;;;;;;;;;;5036058;28;20037;-89
2023/10/13 15:50:52;;;;;;;0.17;0.17;;;;;;;;;;5036591;28;20091;-92
2023/10/13 15:53:19;;;;;;;0.10;0.10;;;;;;;;;;5054690;28;20124;-94
2023/10/13 15:55:45;;;;;;;0.10;0.10;;;;;;;;;;5036059;28;20037;-92
2023/10/13 15:58:13;;;;;;;0.13;0.13;;;;;;;;;;5019717;28;20022;-95
2023/10/13 16:00:39;;;;;;;0.10;0.10;;;;;;;;;;5031527;28;20396;-90
2023/10/13 16:03:10;;;;;;;0.10;0.10;;;;;;;;;;5025069;28;20490;-92
2023/10/13 16:05:37;;;;;;;0.10;0.10;;;;;;;;;;5039792;28;20091;-93
2023/10/13 16:08:06;;;;;;;0.22;0.22;;;;;;;;;;5039459;28;20056;-92
2023/10/13 16:10:33;;;;;;;0.20;0.20;;;;;;;;;;5043657;28;20044;-93
2023/10/13 16:13:15;;;;;;;0.20;0.20;;;;;;;;;;5025240;28;20041;-93
2023/10/13 16:15:42;;;;;;;0.10;0.10;;;;;;;;;;5016408;28;20036;-93
2023/10/13 16:18:08;;;;;;;0.10;0.10;;;;;;;;;;5034896;28;20033;-92
2023/10/13 16:20:36;;;;;;;0.20;0.20;;;;;;;;;;5027224;28;20044;-94
2023/10/13 16:23:01;;;;;;;0.03;0.03;;;;;;;;;;5036116;28;20101;-93
2023/10/13 16:25:27;;;;;;;0.10;0.10;;;;;;;;;;5028050;28;20049;-93
2023/10/13 16:27:53;;;;;;;0.05;0.05;;;;;;;;;;5029286;28;20037;-92
2023/10/13 16:30:20;;;;;;;0.10;0.10;;;;;;;;;;5020017;28;20067;-92
2023/10/13 16:32:46;;;;;;;0.10;0.10;;;;;;;;;;5020349;28;20049;-94
2023/10/13 16:35:19;;;;;;;0.20;0.20;;;;;;;;;;5005730;28;20038;-93
2023/10/13 16:38:06;;;;;;;0.10;0.10;;;;;;;;;;5036999;28;20064;-93
2023/10/13 16:40:39;;;;;;;0.20;0.20;;;;;;;;;;5033620;28;20068;-93
2023/10/13 16:43:07;;;;;;;0.20;0.20;;;;;;;;;;5050247;28;20041;-92
2023/10/13 16:45:43;;;;;;;0.10;0.10;;;;;;;;;;5040873;28;20040;-93
2023/10/13 16:48:13;;;;;;;0.10;0.10;;;;;;;;;;5048885;28;20036;-94
2023/10/13 16:50:47;;;;;;;0.03;0.03;;;;;;;;;;5036334;28;20033;-92
2023/10/13 16:53:13;;;;;;;0.00;0.00;;;;;;;;;;5038978;28;20076;-92
2023/10/13 16:55:43;;;;;;;0.20;0.20;;;;;;;;;;5039440;28;20037;-91
2023/10/13 16:58:12;;;;;;;0.10;0.10;;;;;;;;;;5035983;28;20486;-91
2023/10/13 17:00:43;;;;;;;0.10;0.10;;;;;;;;;;5050636;28;20520;-91
2023/10/13 17:03:11;;;;;;;0.20;0.20;;;;;;;;;;5036352;28;20047;-91
2023/10/13 17:05:45;;;;;;;0.05;0.05;;;;;;;;;;5033237;28;20040;-91
2023/10/13 17:08:11;;;;;;;0.10;0.10;;;;;;;;;;5020906;28;20037;-93
2023/10/13 17:10:38;;;;;;;0.10;0.10;;;;;;;;;;5038376;28;20041;-93
2023/10/13 17:13:04;;;;;;;0.00;0.00;;;;;;;;;;5034228;28;20119;-92
2023/10/13 17:15:38;;;;;;;0.15;0.15;;;;;;;;;;5033800;28;20034;-90
2023/10/13 17:18:05;;;;;;;0.00;0.00;;;;;;;;;;5031148;28;20046;-91
2023/10/13 17:20:36;;;;;;;0.17;0.17;;;;;;;;;;5026509;28;20014;-91
2023/10/13 17:23:04;;;;;;;0.28;0.28;;;;;;;;;;5019956;28;20041;-92
2023/10/13 17:25:30;;;;;;;0.10;0.10;;;;;;;;;;5034264;28;20105;-93
2023/10/13 17:27:57;;;;;;;0.20;0.20;;;;;;;;;;5024305;28;20064;-93
2023/10/13 17:30:23;;;;;;;0.10;0.10;;;;;;;;;;5031416;28;20079;-93
2023/10/13 17:32:49;;;;;;;0.20;0.20;;;;;;;;;;5020150;28;20507;-93
2023/10/13 17:35:18;;;;;;;0.20;0.20;;;;;;;;;;5020610;28;20045;-92
2023/10/13 17:37:44;;;;;;;0.10;0.10;;;;;;;;;;5039591;28;20036;-93
2023/10/13 17:40:15;;;;;;;0.20;0.20;;;;;;;;;;5033450;28;20048;-93
2023/10/13 17:42:52;;;;;;;0.10;0.10;;;;;;;;;;5028364;28;20041;-92
2023/10/13 17:45:18;;;;;;;0.00;0.00;;;;;;;;;;5034522;28;20055;-93
2023/10/13 17:47:44;;;;;;;0.08;0.08;;;;;;;;;;5028919;28;20061;-94
2023/10/13 17:50:25;;;;;;;0.20;0.20;;;;;;;;;;5034833;28;20075;-92
2023/10/13 17:52:51;;;;;;;0.30;0.30;;;;;;;;;;5036166;28;20127;-94
2023/10/13 17:55:17;;;;;;;0.13;0.13;;;;;;;;;;5032535;28;20114;-92
2023/10/13 17:57:45;;;;;;;0.10;0.10;;;;;;;;;;5019097;28;20453;-92
2023/10/13 18:00:15;;;;;;;0.10;0.10;;;;;;;;;;5039333;28;20037;-91
2023/10/13 18:02:42;;;;;;;0.00;0.00;;;;;;;;;;5027962;28;20068;-93
2023/10/13 18:05:12;;;;;;;0.20;0.20;;;;;;;;;;5029991;28;20041;-92
2023/10/13 18:07:39;;;;;;;0.10;0.10;;;;;;;;;;5034825;28;20071;-92
2023/10/13 18:10:06;;;;;;;0.10;0.10;;;;;;;;;;5043753;28;20045;-93
2023/10/13 18:12:36;;;;;;;0.10;0.10;;;;;;;;;;5034873;28;20044;-94
2023/10/13 18:15:03;;;;;;;0.00;0.00;;;;;;;;;;5030398;28;20057;-94
2023/10/13 18:17:31;;;;;;;0.10;0.10;;;;;;;;;;5023586;28;20034;-94
2023/10/13 18:19:58;;;;;;;0.05;0.05;;;;;;;;;;5027764;28;20120;-91
2023/10/13 18:22:24;;;;;;;0.00;0.00;;;;;;;;;;5019887;28;20075;-93
2023/10/13 18:24:51;;;;;;;0.10;0.10;;;;;;;;;;5028194;28;20041;-92
2023/10/13 18:27:20;;;;;;;0.10;0.10;;;;;;;;;;5031264;28;20049;-92
2023/10/13 18:29:49;;;;;;;0.10;0.10;;;;;;;;;;5032221;28;20048;-93
2023/10/13 18:32:18;;;;;;;0.10;0.10;;;;;;;;;;5034833;28;20063;-94
2023/10/13 18:34:49;;;;;;;0.15;0.15;;;;;;;;;;5023761;28;20037;-92
2023/10/13 18:37:15;;;;;;;0.10;0.10;;;;;;;;;;5021341;28;20063;-93
2023/10/13 18:39:41;;;;;;;0.10;0.10;;;;;;;;;;5037587;28;20071;-93
2023/10/13 18:42:16;;;;;;;0.20;0.20;;;;;;;;;;5050382;28;20049;-93
2023/10/13 18:44:43;;;;;;;0.08;0.08;;;;;;;;;;5048604;28;20533;-93
2023/10/13 18:47:24;;;;;;;0.17;0.17;;;;;;;;;;5046674;28;20045;-93
2023/10/13 18:49:50;;;;;;;0.00;0.00;;;;;;;;;;5022329;28;20244;-93
2023/10/13 18:52:16;;;;;;;0.10;0.10;;;;;;;;;;5019347;28;20152;-93
2023/10/13 18:54:44;;;;;;;0.10;0.10;;;;;;;;;;5020222;28;20041;-93
2023/10/13 18:57:13;;;;;;;0.00;0.00;;;;;;;;;;5033407;28;20049;-93
2023/10/13 18:59:39;;;;;;;0.10;0.10;;;;;;;;;;5035621;28;20065;-91
2023/10/13 19:02:07;;;;;;;0.10;0.10;;;;;;;;;;5029701;28;20052;-93
2023/10/13 19:04:35;;;;;;;0.00;0.00;;;;;;;;;;5028966;28;20045;-91